sensor_id;sensor_type;location;lat;lon;timestamp;temperature;humidity
15625;DHT22;7912;51.376;6.126;2022-09-17T00:01:40;13.50;99.90
15625;DHT22;7912;51.376;6.126;2022-09-17T00:04:08;13.50;99.90
15625;DHT22;7912;51.376;6.126;2022-09-17T00:06:36;13.40;99.90
15625;DHT22;7912;51.376;6.126;2022-09-17T00:09:05;13.40;99.90
15625;DHT22;7912;51.376;6.126;2022-09-17T00:11:36;13.40;99.90
15625;DHT22;7912;51.376;6.126;2022-09-17T00:14:06;13.40;99.90
15625;DHT22;7912;51.376;6.126;2022-09-17T00:16:38;13.30;99.90
15625;DHT22;7912;51.376;6.126;2022-09-17T00:19:14;13.30;99.90
15625;DHT22;7912;51.376;6.126;2022-09-17T00:21:45;13.30;99.90
15625;DHT22;7912;51.376;6.126;2022-09-17T00:24:14;13.30;99.90
15625;DHT22;7912;51.376;6.126;2022-09-17T00:26:42;13.30;99.90
15625;DHT22;7912;51.376;6.126;2022-09-17T00:29:10;13.30;99.90
15625;DHT22;7912;51.376;6.126;2022-09-17T00:31:38;13.20;99.90
15625;DHT22;7912;51.376;6.126;2022-09-17T00:34:06;13.20;99.90
15625;DHT22;7912;51.376;6.126;2022-09-17T00:36:35;13.20;99.90
15625;DHT22;7912;51.376;6.126;2022-09-17T00:39:05;13.20;99.90
15625;DHT22;7912;51.376;6.126;2022-09-17T00:41:37;13.20;99.90
15625;DHT22;7912;51.376;6.126;2022-09-17T00:45:07;13.20;99.90
15625;DHT22;7912;51.376;6.126;2022-09-17T00:47:36;13.10;99.90
15625;DHT22;7912;51.376;6.126;2022-09-17T00:50:27;13.10;99.90
15625;DHT22;7912;51.376;6.126;2022-09-17T00:53:17;13.10;99.90
15625;DHT22;7912;51.376;6.126;2022-09-17T00:56:03;13.10;99.90
15625;DHT22;7912;51.376;6.126;2022-09-17T00:58:36;13.10;99.90
15625;DHT22;7912;51.376;6.126;2022-09-17T01:01:07;13.10;99.90
15625;DHT22;7912;51.376;6.126;2022-09-17T01:03:34;13.10;99.90
15625;DHT22;7912;51.376;6.126;2022-09-17T01:06:11;13.00;99.90
15625;DHT22;7912;51.376;6.126;2022-09-17T01:14:54;13.10;99.90
15625;DHT22;7912;51.376;6.126;2022-09-17T01:23:50;13.10;99.90
15625;DHT22;7912;51.376;6.126;2022-09-17T01:26:51;13.10;99.90
15625;DHT22;7912;51.376;6.126;2022-09-17T01:35:51;13.10;99.90
15625;DHT22;7912;51.376;6.126;2022-09-17T01:46:33;13.00;99.90
15625;DHT22;7912;51.376;6.126;2022-09-17T01:49:07;13.00;99.90
15625;DHT22;7912;51.376;6.126;2022-09-17T01:51:39;13.00;99.90
15625;DHT22;7912;51.376;6.126;2022-09-17T01:54:19;13.00;99.90
15625;DHT22;7912;51.376;6.126;2022-09-17T01:59:51;13.10;99.90
15625;DHT22;7912;51.376;6.126;2022-09-17T02:05:20;13.10;99.90
15625;DHT22;7912;51.376;6.126;2022-09-17T02:08:09;13.20;99.90
15625;DHT22;7912;51.376;6.126;2022-09-17T02:10:55;13.30;99.90
15625;DHT22;7912;51.376;6.126;2022-09-17T02:27:06;13.40;99.90
15625;DHT22;7912;51.376;6.126;2022-09-17T02:29:57;13.50;99.90
15625;DHT22;7912;51.376;6.126;2022-09-17T02:32:24;13.50;99.90
15625;DHT22;7912;51.376;6.126;2022-09-17T02:34:51;13.50;99.90
15625;DHT22;7912;51.376;6.126;2022-09-17T02:37:19;13.50;99.90
15625;DHT22;7912;51.376;6.126;2022-09-17T02:39:46;13.50;99.90
15625;DHT22;7912;51.376;6.126;2022-09-17T02:42:43;13.50;99.90
15625;DHT22;7912;51.376;6.126;2022-09-17T02:45:28;13.50;99.90
15625;DHT22;7912;51.376;6.126;2022-09-17T02:54:00;13.50;99.90
15625;DHT22;7912;51.376;6.126;2022-09-17T02:56:39;13.40;99.90
15625;DHT22;7912;51.376;6.126;2022-09-17T03:02:23;13.40;99.90
15625;DHT22;7912;51.376;6.126;2022-09-17T03:04:55;13.40;99.90
15625;DHT22;7912;51.376;6.126;2022-09-17T03:07:23;13.30;99.90
15625;DHT22;7912;51.376;6.126;2022-09-17T03:09:50;13.30;99.90
15625;DHT22;7912;51.376;6.126;2022-09-17T03:12:17;13.30;99.90
15625;DHT22;7912;51.376;6.126;2022-09-17T03:14:44;13.30;99.90
15625;DHT22;7912;51.376;6.126;2022-09-17T03:17:11;13.30;99.90
15625;DHT22;7912;51.376;6.126;2022-09-17T03:19:40;13.30;99.90
15625;DHT22;7912;51.376;6.126;2022-09-17T03:22:07;13.20;99.90
15625;DHT22;7912;51.376;6.126;2022-09-17T03:24:35;13.30;99.90
15625;DHT22;7912;51.376;6.126;2022-09-17T03:27:02;13.30;99.90
15625;DHT22;7912;51.376;6.126;2022-09-17T03:29:29;13.20;99.90
15625;DHT22;7912;51.376;6.126;2022-09-17T03:31:57;13.20;99.90
15625;DHT22;7912;51.376;6.126;2022-09-17T03:34:24;13.20;99.90
15625;DHT22;7912;51.376;6.126;2022-09-17T03:36:52;13.20;99.90
15625;DHT22;7912;51.376;6.126;2022-09-17T03:39:19;13.20;99.90
15625;DHT22;7912;51.376;6.126;2022-09-17T03:41:46;13.20;99.90
15625;DHT22;7912;51.376;6.126;2022-09-17T03:44:13;13.20;99.90
15625;DHT22;7912;51.376;6.126;2022-09-17T03:46:45;13.20;99.90
15625;DHT22;7912;51.376;6.126;2022-09-17T03:49:12;13.20;99.90
15625;DHT22;7912;51.376;6.126;2022-09-17T03:51:39;13.20;99.90
15625;DHT22;7912;51.376;6.126;2022-09-17T03:54:07;13.10;99.90
15625;DHT22;7912;51.376;6.126;2022-09-17T03:56:35;13.10;99.90
15625;DHT22;7912;51.376;6.126;2022-09-17T03:59:02;13.10;99.90
15625;DHT22;7912;51.376;6.126;2022-09-17T04:01:29;13.10;99.90
15625;DHT22;7912;51.376;6.126;2022-09-17T04:03:56;13.10;99.90
15625;DHT22;7912;51.376;6.126;2022-09-17T04:06:24;13.10;99.90
15625;DHT22;7912;51.376;6.126;2022-09-17T04:08:51;13.10;99.90
15625;DHT22;7912;51.376;6.126;2022-09-17T04:11:19;13.00;99.90
15625;DHT22;7912;51.376;6.126;2022-09-17T04:13:46;13.00;99.90
15625;DHT22;7912;51.376;6.126;2022-09-17T04:16:13;13.00;99.90
15625;DHT22;7912;51.376;6.126;2022-09-17T04:18:40;13.00;99.90
15625;DHT22;7912;51.376;6.126;2022-09-17T04:21:08;13.00;99.90
15625;DHT22;7912;51.376;6.126;2022-09-17T04:23:35;12.90;99.90
15625;DHT22;7912;51.376;6.126;2022-09-17T04:26:02;12.90;99.90
15625;DHT22;7912;51.376;6.126;2022-09-17T04:28:30;12.90;99.90
15625;DHT22;7912;51.376;6.126;2022-09-17T04:30:57;12.90;99.90
15625;DHT22;7912;51.376;6.126;2022-09-17T04:33:24;12.90;99.90
15625;DHT22;7912;51.376;6.126;2022-09-17T04:35:52;12.90;99.90
15625;DHT22;7912;51.376;6.126;2022-09-17T04:38:19;12.90;99.90
15625;DHT22;7912;51.376;6.126;2022-09-17T04:40:47;13.00;99.90
15625;DHT22;7912;51.376;6.126;2022-09-17T04:43:15;13.00;99.90
15625;DHT22;7912;51.376;6.126;2022-09-17T04:45:47;13.00;99.90
15625;DHT22;7912;51.376;6.126;2022-09-17T04:48:15;13.00;99.90
15625;DHT22;7912;51.376;6.126;2022-09-17T04:50:43;13.00;99.90
15625;DHT22;7912;51.376;6.126;2022-09-17T04:53:10;13.10;99.90
15625;DHT22;7912;51.376;6.126;2022-09-17T04:55:38;13.10;99.90
15625;DHT22;7912;51.376;6.126;2022-09-17T04:58:05;13.10;99.90
15625;DHT22;7912;51.376;6.126;2022-09-17T05:00:32;13.10;99.90
15625;DHT22;7912;51.376;6.126;2022-09-17T05:03:01;13.20;99.90
15625;DHT22;7912;51.376;6.126;2022-09-17T05:05:29;13.20;99.90
15625;DHT22;7912;51.376;6.126;2022-09-17T05:07:56;13.20;99.90
15625;DHT22;7912;51.376;6.126;2022-09-17T05:10:23;13.30;99.90
15625;DHT22;7912;51.376;6.126;2022-09-17T05:12:53;13.30;99.90
15625;DHT22;7912;51.376;6.126;2022-09-17T05:15:22;13.30;99.90
15625;DHT22;7912;51.376;6.126;2022-09-17T05:17:50;13.30;99.90
15625;DHT22;7912;51.376;6.126;2022-09-17T05:20:18;13.30;99.90
15625;DHT22;7912;51.376;6.126;2022-09-17T05:22:47;13.40;99.90
15625;DHT22;7912;51.376;6.126;2022-09-17T05:25:19;13.40;99.90
15625;DHT22;7912;51.376;6.126;2022-09-17T05:27:52;13.30;99.90
15625;DHT22;7912;51.376;6.126;2022-09-17T05:30:20;13.40;99.90
15625;DHT22;7912;51.376;6.126;2022-09-17T05:32:48;13.40;99.90
15625;DHT22;7912;51.376;6.126;2022-09-17T05:35:23;13.30;99.90
15625;DHT22;7912;51.376;6.126;2022-09-17T05:37:50;13.30;99.90
15625;DHT22;7912;51.376;6.126;2022-09-17T05:40:23;13.30;99.90
15625;DHT22;7912;51.376;6.126;2022-09-17T05:42:50;13.30;99.90
15625;DHT22;7912;51.376;6.126;2022-09-17T05:45:17;13.30;99.90
15625;DHT22;7912;51.376;6.126;2022-09-17T05:47:44;13.30;99.90
15625;DHT22;7912;51.376;6.126;2022-09-17T05:50:11;13.30;99.90
15625;DHT22;7912;51.376;6.126;2022-09-17T05:52:39;13.30;99.90
15625;DHT22;7912;51.376;6.126;2022-09-17T05:55:06;13.30;99.90
15625;DHT22;7912;51.376;6.126;2022-09-17T05:57:34;13.20;99.90
15625;DHT22;7912;51.376;6.126;2022-09-17T06:00:01;13.30;99.90
15625;DHT22;7912;51.376;6.126;2022-09-17T06:02:29;13.30;99.90
15625;DHT22;7912;51.376;6.126;2022-09-17T06:04:57;13.30;99.90
15625;DHT22;7912;51.376;6.126;2022-09-17T06:07:27;13.30;99.90
15625;DHT22;7912;51.376;6.126;2022-09-17T06:09:54;13.30;99.90
15625;DHT22;7912;51.376;6.126;2022-09-17T06:12:22;13.30;99.90
15625;DHT22;7912;51.376;6.126;2022-09-17T06:14:49;13.30;99.90
15625;DHT22;7912;51.376;6.126;2022-09-17T06:17:16;13.30;99.90
15625;DHT22;7912;51.376;6.126;2022-09-17T06:19:47;13.30;99.90
15625;DHT22;7912;51.376;6.126;2022-09-17T06:22:17;13.40;99.90
15625;DHT22;7912;51.376;6.126;2022-09-17T06:24:45;13.40;99.90
15625;DHT22;7912;51.376;6.126;2022-09-17T06:27:13;13.40;99.90
15625;DHT22;7912;51.376;6.126;2022-09-17T06:29:40;13.50;99.90
15625;DHT22;7912;51.376;6.126;2022-09-17T06:32:08;13.50;99.90
15625;DHT22;7912;51.376;6.126;2022-09-17T06:34:38;13.60;99.90
15625;DHT22;7912;51.376;6.126;2022-09-17T06:37:05;13.70;99.90
15625;DHT22;7912;51.376;6.126;2022-09-17T06:39:33;13.80;99.90
15625;DHT22;7912;51.376;6.126;2022-09-17T06:42:00;13.90;99.90
15625;DHT22;7912;51.376;6.126;2022-09-17T06:44:27;13.90;99.90
15625;DHT22;7912;51.376;6.126;2022-09-17T06:46:55;14.00;99.90
15625;DHT22;7912;51.376;6.126;2022-09-17T06:49:22;14.10;99.90
15625;DHT22;7912;51.376;6.126;2022-09-17T06:51:50;14.20;99.90
15625;DHT22;7912;51.376;6.126;2022-09-17T06:54:17;14.30;99.90
15625;DHT22;7912;51.376;6.126;2022-09-17T06:56:47;14.40;99.90
15625;DHT22;7912;51.376;6.126;2022-09-17T06:59:15;14.40;99.90
15625;DHT22;7912;51.376;6.126;2022-09-17T07:01:42;14.50;99.90
15625;DHT22;7912;51.376;6.126;2022-09-17T07:04:09;14.60;99.90
15625;DHT22;7912;51.376;6.126;2022-09-17T07:06:36;14.70;99.90
15625;DHT22;7912;51.376;6.126;2022-09-17T07:09:03;14.80;99.90
15625;DHT22;7912;51.376;6.126;2022-09-17T07:11:37;14.90;99.90
15625;DHT22;7912;51.376;6.126;2022-09-17T07:14:05;14.90;99.90
15625;DHT22;7912;51.376;6.126;2022-09-17T07:16:32;15.00;99.90
15625;DHT22;7912;51.376;6.126;2022-09-17T07:19:02;15.10;99.90
15625;DHT22;7912;51.376;6.126;2022-09-17T07:21:30;15.20;99.90
15625;DHT22;7912;51.376;6.126;2022-09-17T07:23:57;15.30;99.90
15625;DHT22;7912;51.376;6.126;2022-09-17T07:26:25;15.40;99.90
15625;DHT22;7912;51.376;6.126;2022-09-17T07:28:52;15.40;99.90
15625;DHT22;7912;51.376;6.126;2022-09-17T07:31:19;15.50;99.90
15625;DHT22;7912;51.376;6.126;2022-09-17T07:33:46;15.60;99.90
15625;DHT22;7912;51.376;6.126;2022-09-17T07:36:15;15.60;99.90
15625;DHT22;7912;51.376;6.126;2022-09-17T07:38:43;15.70;99.90
15625;DHT22;7912;51.376;6.126;2022-09-17T07:41:17;15.80;99.90
15625;DHT22;7912;51.376;6.126;2022-09-17T07:43:46;15.90;99.90
15625;DHT22;7912;51.376;6.126;2022-09-17T07:46:15;15.90;99.90
15625;DHT22;7912;51.376;6.126;2022-09-17T07:48:45;16.00;99.90
15625;DHT22;7912;51.376;6.126;2022-09-17T07:51:22;16.00;99.90
15625;DHT22;7912;51.376;6.126;2022-09-17T07:53:52;16.10;99.90
15625;DHT22;7912;51.376;6.126;2022-09-17T07:56:20;16.10;99.90
15625;DHT22;7912;51.376;6.126;2022-09-17T07:58:48;16.20;99.90
15625;DHT22;7912;51.376;6.126;2022-09-17T08:01:16;16.20;99.90
15625;DHT22;7912;51.376;6.126;2022-09-17T08:03:48;16.30;99.90
15625;DHT22;7912;51.376;6.126;2022-09-17T08:06:20;16.30;99.90
15625;DHT22;7912;51.376;6.126;2022-09-17T08:08:56;16.30;99.90
15625;DHT22;7912;51.376;6.126;2022-09-17T08:11:28;16.40;99.90
15625;DHT22;7912;51.376;6.126;2022-09-17T08:14:16;16.40;99.90
15625;DHT22;7912;51.376;6.126;2022-09-17T08:16:43;16.40;99.90
15625;DHT22;7912;51.376;6.126;2022-09-17T08:19:13;16.50;99.90
15625;DHT22;7912;51.376;6.126;2022-09-17T08:21:40;16.50;99.90
15625;DHT22;7912;51.376;6.126;2022-09-17T08:24:07;16.60;99.90
15625;DHT22;7912;51.376;6.126;2022-09-17T08:26:34;16.60;99.90
15625;DHT22;7912;51.376;6.126;2022-09-17T08:29:02;16.70;99.90
15625;DHT22;7912;51.376;6.126;2022-09-17T08:31:29;16.80;99.90
15625;DHT22;7912;51.376;6.126;2022-09-17T08:33:59;16.90;99.90
15625;DHT22;7912;51.376;6.126;2022-09-17T08:36:26;16.90;99.90
15625;DHT22;7912;51.376;6.126;2022-09-17T08:38:55;16.90;99.90
15625;DHT22;7912;51.376;6.126;2022-09-17T08:41:49;17.00;99.90
15625;DHT22;7912;51.376;6.126;2022-09-17T08:44:40;17.00;99.90
15625;DHT22;7912;51.376;6.126;2022-09-17T08:47:25;17.10;99.90
15625;DHT22;7912;51.376;6.126;2022-09-17T08:49:58;17.20;99.90
15625;DHT22;7912;51.376;6.126;2022-09-17T09:01:36;17.40;99.90
15625;DHT22;7912;51.376;6.126;2022-09-17T09:07:13;17.70;99.90
15625;DHT22;7912;51.376;6.126;2022-09-17T09:10:07;17.80;99.90
15625;DHT22;7912;51.376;6.126;2022-09-17T09:12:44;17.80;99.90
15625;DHT22;7912;51.376;6.126;2022-09-17T09:15:37;17.90;99.90
15625;DHT22;7912;51.376;6.126;2022-09-17T09:18:28;17.90;99.90
15625;DHT22;7912;51.376;6.126;2022-09-17T09:25:04;18.00;99.90
15625;DHT22;7912;51.376;6.126;2022-09-17T09:27:25;18.10;99.90
15625;DHT22;7912;51.376;6.126;2022-09-17T09:30:33;18.30;99.90
15625;DHT22;7912;51.376;6.126;2022-09-17T09:33:14;18.40;99.90
15625;DHT22;7912;51.376;6.126;2022-09-17T09:35:44;18.60;99.90
15625;DHT22;7912;51.376;6.126;2022-09-17T09:41:16;19.10;99.10
15625;DHT22;7912;51.376;6.126;2022-09-17T09:44:11;19.30;97.90
15625;DHT22;7912;51.376;6.126;2022-09-17T09:52:36;19.90;96.90
15625;DHT22;7912;51.376;6.126;2022-09-17T09:55:51;20.00;96.70
15625;DHT22;7912;51.376;6.126;2022-09-17T09:58:37;20.20;96.70
15625;DHT22;7912;51.376;6.126;2022-09-17T10:01:16;20.30;96.40
15625;DHT22;7912;51.376;6.126;2022-09-17T10:03:47;20.40;96.40
15625;DHT22;7912;51.376;6.126;2022-09-17T10:06:18;20.50;96.70
15625;DHT22;7912;51.376;6.126;2022-09-17T10:11:22;20.80;95.20
15625;DHT22;7912;51.376;6.126;2022-09-17T10:14:23;21.00;95.20
15625;DHT22;7912;51.376;6.126;2022-09-17T10:19:40;21.50;94.40
15625;DHT22;7912;51.376;6.126;2022-09-17T10:24:52;21.80;92.50
15625;DHT22;7912;51.376;6.126;2022-09-17T10:27:23;21.90;92.60
15625;DHT22;7912;51.376;6.126;2022-09-17T10:30:00;21.90;92.80
15625;DHT22;7912;51.376;6.126;2022-09-17T10:32:28;21.90;91.70
15625;DHT22;7912;51.376;6.126;2022-09-17T10:35:26;21.80;92.30
15625;DHT22;7912;51.376;6.126;2022-09-17T10:37:53;21.70;92.30
15625;DHT22;7912;51.376;6.126;2022-09-17T10:40:26;21.50;93.00
15625;DHT22;7912;51.376;6.126;2022-09-17T10:45:54;20.90;94.40
15625;DHT22;7912;51.376;6.126;2022-09-17T10:48:29;20.50;94.80
15625;DHT22;7912;51.376;6.126;2022-09-17T10:50:59;20.20;95.60
15625;DHT22;7912;51.376;6.126;2022-09-17T10:53:28;19.90;96.00
15625;DHT22;7912;51.376;6.126;2022-09-17T10:56:17;19.70;97.00
15625;DHT22;7912;51.376;6.126;2022-09-17T11:05:37;19.30;98.00
15625;DHT22;7912;51.376;6.126;2022-09-17T11:11:10;19.30;98.80
15625;DHT22;7912;51.376;6.126;2022-09-17T11:23:06;19.90;95.60
15625;DHT22;7912;51.376;6.126;2022-09-17T11:26:06;19.90;94.30
15625;DHT22;7912;51.376;6.126;2022-09-17T11:43:32;20.60;92.70
15625;DHT22;7912;51.376;6.126;2022-09-17T11:46:17;20.70;93.20
15625;DHT22;7912;51.376;6.126;2022-09-17T11:49:05;21.00;92.60
15625;DHT22;7912;51.376;6.126;2022-09-17T11:52:08;21.20;91.40
15625;DHT22;7912;51.376;6.126;2022-09-17T11:54:51;21.40;91.10
15625;DHT22;7912;51.376;6.126;2022-09-17T11:57:32;21.50;90.70
15625;DHT22;7912;51.376;6.126;2022-09-17T12:00:13;21.60;90.40
15625;DHT22;7912;51.376;6.126;2022-09-17T12:03:12;21.60;90.20
15625;DHT22;7912;51.376;6.126;2022-09-17T12:05:59;21.70;88.70
15625;DHT22;7912;51.376;6.126;2022-09-17T12:17:14;22.00;85.10
15625;DHT22;7912;51.376;6.126;2022-09-17T12:19:55;21.90;86.50
15625;DHT22;7912;51.376;6.126;2022-09-17T12:22:29;21.50;90.60
15625;DHT22;7912;51.376;6.126;2022-09-17T12:25:11;21.10;90.90
15625;DHT22;7912;51.376;6.126;2022-09-17T12:28:05;20.60;91.70
15625;DHT22;7912;51.376;6.126;2022-09-17T12:30:43;20.10;92.70
15625;DHT22;7912;51.376;6.126;2022-09-17T12:33:48;19.70;93.50
15625;DHT22;7912;51.376;6.126;2022-09-17T12:36:40;19.30;94.90
15625;DHT22;7912;51.376;6.126;2022-09-17T12:39:31;19.20;96.40
15625;DHT22;7912;51.376;6.126;2022-09-17T12:47:45;19.70;97.20
15625;DHT22;7912;51.376;6.126;2022-09-17T12:50:39;20.00;96.30
15625;DHT22;7912;51.376;6.126;2022-09-17T12:56:08;20.50;96.00
15625;DHT22;7912;51.376;6.126;2022-09-17T12:59:09;20.80;95.40
15625;DHT22;7912;51.376;6.126;2022-09-17T13:02:21;21.10;94.90
15625;DHT22;7912;51.376;6.126;2022-09-17T13:05:02;21.40;93.10
15625;DHT22;7912;51.376;6.126;2022-09-17T13:10:40;21.60;91.80
15625;DHT22;7912;51.376;6.126;2022-09-17T13:16:44;21.80;88.10
15625;DHT22;7912;51.376;6.126;2022-09-17T13:19:46;21.80;85.80
15625;DHT22;7912;51.376;6.126;2022-09-17T13:22:31;21.60;85.20
15625;DHT22;7912;51.376;6.126;2022-09-17T13:25:10;21.40;88.60
15625;DHT22;7912;51.376;6.126;2022-09-17T13:27:40;21.10;90.30
15625;DHT22;7912;51.376;6.126;2022-09-17T13:30:09;20.90;91.50
15625;DHT22;7912;51.376;6.126;2022-09-17T13:40:21;20.90;94.00
15625;DHT22;7912;51.376;6.126;2022-09-17T13:42:53;21.20;94.30
15625;DHT22;7912;51.376;6.126;2022-09-17T13:45:24;21.50;94.30
15625;DHT22;7912;51.376;6.126;2022-09-17T13:48:09;21.80;94.00
15625;DHT22;7912;51.376;6.126;2022-09-17T13:50:39;22.20;93.20
15625;DHT22;7912;51.376;6.126;2022-09-17T14:00:57;22.60;94.00
15625;DHT22;7912;51.376;6.126;2022-09-17T14:21:13;19.70;94.00
15625;DHT22;7912;51.376;6.126;2022-09-17T14:23:53;19.70;94.70
15625;DHT22;7912;51.376;6.126;2022-09-17T14:29:54;19.90;94.70
15625;DHT22;7912;51.376;6.126;2022-09-17T14:35:56;20.40;94.20
15625;DHT22;7912;51.376;6.126;2022-09-17T14:41:02;20.60;93.10
15625;DHT22;7912;51.376;6.126;2022-09-17T14:43:41;20.40;92.70
15625;DHT22;7912;51.376;6.126;2022-09-17T14:46:21;20.20;93.00
15625;DHT22;7912;51.376;6.126;2022-09-17T14:48:50;19.90;94.00
15625;DHT22;7912;51.376;6.126;2022-09-17T14:53:48;19.80;95.70
15625;DHT22;7912;51.376;6.126;2022-09-17T14:56:33;19.90;95.80
15625;DHT22;7912;51.376;6.126;2022-09-17T14:59:21;20.00;95.60
15625;DHT22;7912;51.376;6.126;2022-09-17T15:01:54;20.20;95.10
15625;DHT22;7912;51.376;6.126;2022-09-17T15:04:24;20.40;95.40
15625;DHT22;7912;51.376;6.126;2022-09-17T15:07:10;20.60;94.90
15625;DHT22;7912;51.376;6.126;2022-09-17T15:09:38;20.70;92.80
15625;DHT22;7912;51.376;6.126;2022-09-17T15:12:05;20.80;92.40
15625;DHT22;7912;51.376;6.126;2022-09-17T15:14:36;20.70;92.50
15625;DHT22;7912;51.376;6.126;2022-09-17T15:17:25;20.60;92.50
15625;DHT22;7912;51.376;6.126;2022-09-17T15:19:55;20.50;92.80
15625;DHT22;7912;51.376;6.126;2022-09-17T15:22:43;20.50;93.20
15625;DHT22;7912;51.376;6.126;2022-09-17T15:25:20;20.50;93.00
15625;DHT22;7912;51.376;6.126;2022-09-17T15:30:58;20.40;93.20
15625;DHT22;7912;51.376;6.126;2022-09-17T15:33:26;20.40;93.30
15625;DHT22;7912;51.376;6.126;2022-09-17T15:39:28;20.30;93.30
15625;DHT22;7912;51.376;6.126;2022-09-17T15:41:58;20.40;93.00
15625;DHT22;7912;51.376;6.126;2022-09-17T15:44:25;20.50;92.90
15625;DHT22;7912;51.376;6.126;2022-09-17T15:48:02;20.50;92.70
15625;DHT22;7912;51.376;6.126;2022-09-17T15:50:25;20.40;92.20
15625;DHT22;7912;51.376;6.126;2022-09-17T15:53:11;20.20;92.20
15625;DHT22;7912;51.376;6.126;2022-09-17T15:55:41;20.10;92.50
15625;DHT22;7912;51.376;6.126;2022-09-17T15:58:50;20.10;92.70
15625;DHT22;7912;51.376;6.126;2022-09-17T16:08:59;20.10;93.10
15625;DHT22;7912;51.376;6.126;2022-09-17T16:11:29;20.10;92.20
15625;DHT22;7912;51.376;6.126;2022-09-17T16:13:59;20.00;92.30
15625;DHT22;7912;51.376;6.126;2022-09-17T16:16:35;19.90;91.40
15625;DHT22;7912;51.376;6.126;2022-09-17T16:19:05;19.80;91.70
15625;DHT22;7912;51.376;6.126;2022-09-17T16:21:32;19.70;92.00
15625;DHT22;7912;51.376;6.126;2022-09-17T16:23:59;19.70;92.10
15625;DHT22;7912;51.376;6.126;2022-09-17T16:26:32;19.70;92.10
15625;DHT22;7912;51.376;6.126;2022-09-17T16:29:07;19.70;92.20
15625;DHT22;7912;51.376;6.126;2022-09-17T16:31:39;19.70;91.80
15625;DHT22;7912;51.376;6.126;2022-09-17T16:34:06;19.70;92.00
15625;DHT22;7912;51.376;6.126;2022-09-17T16:36:34;19.70;91.70
15625;DHT22;7912;51.376;6.126;2022-09-17T16:39:01;19.70;92.00
15625;DHT22;7912;51.376;6.126;2022-09-17T16:41:28;19.70;91.80
15625;DHT22;7912;51.376;6.126;2022-09-17T16:43:56;19.70;91.50
15625;DHT22;7912;51.376;6.126;2022-09-17T16:46:24;19.60;91.60
15625;DHT22;7912;51.376;6.126;2022-09-17T16:48:51;19.50;91.40
15625;DHT22;7912;51.376;6.126;2022-09-17T16:51:19;19.40;91.40
15625;DHT22;7912;51.376;6.126;2022-09-17T16:53:46;19.40;91.60
15625;DHT22;7912;51.376;6.126;2022-09-17T16:56:14;19.20;91.60
15625;DHT22;7912;51.376;6.126;2022-09-17T16:58:41;19.10;91.80
15625;DHT22;7912;51.376;6.126;2022-09-17T17:01:10;19.00;91.80
15625;DHT22;7912;51.376;6.126;2022-09-17T17:03:39;18.90;92.20
15625;DHT22;7912;51.376;6.126;2022-09-17T17:06:20;18.80;92.30
15625;DHT22;7912;51.376;6.126;2022-09-17T17:08:48;18.70;92.40
15625;DHT22;7912;51.376;6.126;2022-09-17T17:11:15;18.60;92.60
15625;DHT22;7912;51.376;6.126;2022-09-17T17:13:43;18.60;92.60
15625;DHT22;7912;51.376;6.126;2022-09-17T17:16:12;18.50;92.70
15625;DHT22;7912;51.376;6.126;2022-09-17T17:18:42;18.50;93.00
15625;DHT22;7912;51.376;6.126;2022-09-17T17:21:13;18.40;93.10
15625;DHT22;7912;51.376;6.126;2022-09-17T17:23:40;18.30;93.10
15625;DHT22;7912;51.376;6.126;2022-09-17T17:26:16;18.30;93.30
15625;DHT22;7912;51.376;6.126;2022-09-17T17:28:43;18.20;93.40
15625;DHT22;7912;51.376;6.126;2022-09-17T17:31:10;18.20;93.50
15625;DHT22;7912;51.376;6.126;2022-09-17T17:33:38;18.10;93.60
15625;DHT22;7912;51.376;6.126;2022-09-17T17:36:05;18.10;93.70
15625;DHT22;7912;51.376;6.126;2022-09-17T17:38:35;18.00;93.90
15625;DHT22;7912;51.376;6.126;2022-09-17T17:41:08;18.00;93.90
15625;DHT22;7912;51.376;6.126;2022-09-17T17:43:36;17.90;94.00
15625;DHT22;7912;51.376;6.126;2022-09-17T17:46:08;17.90;93.80
15625;DHT22;7912;51.376;6.126;2022-09-17T17:48:36;17.80;93.80
15625;DHT22;7912;51.376;6.126;2022-09-17T17:51:06;17.70;93.90
15625;DHT22;7912;51.376;6.126;2022-09-17T17:53:34;17.70;93.90
15625;DHT22;7912;51.376;6.126;2022-09-17T17:56:05;17.60;93.70
15625;DHT22;7912;51.376;6.126;2022-09-17T17:58:34;17.60;93.80
15625;DHT22;7912;51.376;6.126;2022-09-17T18:03:47;17.40;93.50
15625;DHT22;7912;51.376;6.126;2022-09-17T18:06:15;17.40;93.70
15625;DHT22;7912;51.376;6.126;2022-09-17T18:08:44;17.30;93.50
15625;DHT22;7912;51.376;6.126;2022-09-17T18:11:12;17.30;93.30
15625;DHT22;7912;51.376;6.126;2022-09-17T18:13:39;17.30;93.00
15625;DHT22;7912;51.376;6.126;2022-09-17T18:16:12;17.20;92.90
15625;DHT22;7912;51.376;6.126;2022-09-17T18:18:43;17.20;93.00
15625;DHT22;7912;51.376;6.126;2022-09-17T18:21:19;17.20;93.20
15625;DHT22;7912;51.376;6.126;2022-09-17T18:23:49;17.10;93.50
15625;DHT22;7912;51.376;6.126;2022-09-17T18:26:21;17.10;93.60
15625;DHT22;7912;51.376;6.126;2022-09-17T18:28:51;17.00;93.50
15625;DHT22;7912;51.376;6.126;2022-09-17T18:31:35;17.00;93.80
15625;DHT22;7912;51.376;6.126;2022-09-17T18:34:22;16.90;93.90
15625;DHT22;7912;51.376;6.126;2022-09-17T18:36:51;16.90;94.20
15625;DHT22;7912;51.376;6.126;2022-09-17T18:39:19;16.90;94.40
15625;DHT22;7912;51.376;6.126;2022-09-17T18:42:07;16.80;94.40
15625;DHT22;7912;51.376;6.126;2022-09-17T18:44:35;16.80;94.70
15625;DHT22;7912;51.376;6.126;2022-09-17T18:47:02;16.80;94.80
15625;DHT22;7912;51.376;6.126;2022-09-17T18:49:30;16.80;95.00
15625;DHT22;7912;51.376;6.126;2022-09-17T18:51:59;16.80;95.20
15625;DHT22;7912;51.376;6.126;2022-09-17T18:54:26;16.80;95.40
15625;DHT22;7912;51.376;6.126;2022-09-17T18:56:53;16.70;95.70
15625;DHT22;7912;51.376;6.126;2022-09-17T19:02:26;16.70;96.50
15625;DHT22;7912;51.376;6.126;2022-09-17T19:04:53;16.60;96.50
15625;DHT22;7912;51.376;6.126;2022-09-17T19:07:22;16.60;96.90
15625;DHT22;7912;51.376;6.126;2022-09-17T19:09:49;16.60;97.20
15625;DHT22;7912;51.376;6.126;2022-09-17T19:12:16;16.50;97.50
15625;DHT22;7912;51.376;6.126;2022-09-17T19:14:43;16.50;97.80
15625;DHT22;7912;51.376;6.126;2022-09-17T19:17:10;16.50;98.00
15625;DHT22;7912;51.376;6.126;2022-09-17T19:19:38;16.40;98.20
15625;DHT22;7912;51.376;6.126;2022-09-17T19:22:05;16.40;98.40
15625;DHT22;7912;51.376;6.126;2022-09-17T19:24:33;16.40;98.70
15625;DHT22;7912;51.376;6.126;2022-09-17T19:27:01;16.30;98.90
15625;DHT22;7912;51.376;6.126;2022-09-17T19:29:29;16.30;99.10
15625;DHT22;7912;51.376;6.126;2022-09-17T19:31:56;16.30;99.20
15625;DHT22;7912;51.376;6.126;2022-09-17T19:34:24;16.30;99.40
15625;DHT22;7912;51.376;6.126;2022-09-17T19:36:51;16.30;99.80
15625;DHT22;7912;51.376;6.126;2022-09-17T19:39:18;16.20;99.60
15625;DHT22;7912;51.376;6.126;2022-09-17T19:41:45;16.20;99.70
15625;DHT22;7912;51.376;6.126;2022-09-17T19:44:12;16.20;99.80
15625;DHT22;7912;51.376;6.126;2022-09-17T19:46:39;16.20;99.90
15625;DHT22;7912;51.376;6.126;2022-09-17T19:49:07;16.10;99.90
15625;DHT22;7912;51.376;6.126;2022-09-17T19:51:35;16.10;99.90
15625;DHT22;7912;51.376;6.126;2022-09-17T19:54:04;16.10;99.90
15625;DHT22;7912;51.376;6.126;2022-09-17T19:56:32;16.10;99.90